createdAt,value
2023-02-02T00:00:34.373Z,100380.22
2023-02-02T00:03:01.388Z,100362.16
2023-02-02T00:05:28.269Z,100354.38
2023-02-02T00:07:55.109Z,100382.66
2023-02-02T00:10:21.896Z,100371.97
2023-02-02T00:12:49.000Z,100339.47
2023-02-02T00:15:15.820Z,100338.09
2023-02-02T00:17:42.763Z,100365.03
2023-02-02T00:20:12.924Z,100352.59
2023-02-02T00:22:40.051Z,100328.50
2023-02-02T00:25:07.680Z,100326.47
2023-02-02T00:27:34.728Z,100331.97
2023-02-02T00:30:03.009Z,100365.97
2023-02-02T00:32:29.841Z,100360.72
2023-02-02T00:34:56.628Z,100350.16
2023-02-02T00:37:23.579Z,100326.06
2023-02-02T00:39:50.387Z,100327.34
2023-02-02T00:42:17.514Z,100346.72
2023-02-02T00:45:03.034Z,100363.09
2023-02-02T00:47:32.032Z,100354.84
2023-02-02T00:50:05.672Z,100333.59
2023-02-02T00:52:32.802Z,100358.41
2023-02-02T00:55:03.706Z,100361.97
2023-02-02T00:57:33.369Z,100361.84
2023-02-02T01:00:00.490Z,100352.53
2023-02-02T01:02:27.726Z,100356.19
2023-02-02T01:05:00.760Z,100359.75
2023-02-02T01:07:27.660Z,100341.16
2023-02-02T01:09:56.206Z,100345.63
2023-02-02T01:12:23.192Z,100346.59
2023-02-02T01:14:50.138Z,100349.72
2023-02-02T01:17:17.047Z,100334.56
2023-02-02T01:19:44.202Z,100337.41
2023-02-02T01:22:11.928Z,100342.31
2023-02-02T01:24:38.941Z,100346.13
2023-02-02T01:27:05.947Z,100340.50
2023-02-02T01:29:32.838Z,100343.69
2023-02-02T01:32:06.487Z,100362.03
2023-02-02T01:34:43.798Z,100348.78
2023-02-02T01:37:11.416Z,100341.91
2023-02-02T01:39:38.322Z,100346.13
2023-02-02T01:42:13.949Z,100340.25
2023-02-02T01:44:55.947Z,100341.06
2023-02-02T01:47:29.638Z,100333.56
2023-02-02T01:49:56.973Z,100341.00
2023-02-02T01:52:27.764Z,100340.75
2023-02-02T01:55:08.692Z,100345.66
2023-02-02T01:57:44.108Z,100333.53
2023-02-02T02:00:14.711Z,100331.28
2023-02-02T02:02:45.920Z,100301.88
2023-02-02T02:05:18.697Z,100292.34
2023-02-02T02:07:50.503Z,100289.28
2023-02-02T02:10:18.909Z,100287.59
2023-02-02T02:12:48.425Z,100280.03
2023-02-02T02:15:34.455Z,100278.88
2023-02-02T02:18:20.136Z,100286.56
2023-02-02T02:21:43.507Z,100289.16
2023-02-02T02:24:59.519Z,100301.69
2023-02-02T02:27:48.478Z,100295.03
2023-02-02T02:30:36.192Z,100295.44
2023-02-02T02:33:03.131Z,100308.41
2023-02-02T02:35:51.349Z,100309.97
2023-02-02T02:38:27.334Z,100315.56
2023-02-02T02:40:58.535Z,100319.44
2023-02-02T02:43:33.166Z,100316.13
2023-02-02T02:46:00.647Z,100304.59
2023-02-02T02:48:29.835Z,100313.97
2023-02-02T02:51:07.783Z,100322.91
2023-02-02T02:53:37.469Z,100310.06
2023-02-02T02:56:28.738Z,100306.66
2023-02-02T02:59:06.646Z,100309.31
2023-02-02T03:02:03.255Z,100304.75
2023-02-02T03:04:47.459Z,100297.00
2023-02-02T03:07:26.207Z,100292.28
2023-02-02T03:09:55.879Z,100288.09
2023-02-02T03:12:23.350Z,100284.50
2023-02-02T03:14:50.302Z,100280.47
2023-02-02T03:17:17.148Z,100271.28
2023-02-02T03:19:44.017Z,100285.63
2023-02-02T03:22:10.847Z,100283.63
2023-02-02T03:24:37.677Z,100258.78
2023-02-02T03:27:04.696Z,100287.94
2023-02-02T03:29:31.776Z,100268.69
2023-02-02T03:31:58.708Z,100270.56
2023-02-02T03:34:25.529Z,100276.50
2023-02-02T03:36:52.381Z,100252.41
2023-02-02T03:39:20.075Z,100266.09
2023-02-02T03:41:46.890Z,100268.03
2023-02-02T03:44:13.797Z,100272.91
2023-02-02T03:46:40.557Z,100263.03
2023-02-02T03:49:07.537Z,100254.53
2023-02-02T03:51:34.440Z,100265.59
2023-02-02T03:54:07.419Z,100275.66
2023-02-02T03:56:35.155Z,100276.63
2023-02-02T03:59:02.177Z,100266.31
2023-02-02T04:01:30.249Z,100289.41
2023-02-02T04:03:58.885Z,100292.47
2023-02-02T04:06:26.294Z,100297.06
2023-02-02T04:08:56.047Z,100297.06
2023-02-02T04:11:33.071Z,100287.75
2023-02-02T04:14:04.481Z,100285.34
2023-02-02T04:16:39.484Z,100270.47
2023-02-02T04:19:13.255Z,100279.50
2023-02-02T04:21:41.533Z,100287.19
2023-02-02T04:24:15.373Z,100281.63
2023-02-02T04:26:43.760Z,100282.75
2023-02-02T04:29:26.687Z,100275.91
2023-02-02T04:32:05.060Z,100278.56
2023-02-02T04:34:35.345Z,100270.78
2023-02-02T04:37:12.194Z,100268.44
2023-02-02T04:42:27.982Z,100265.53
2023-02-02T04:45:02.141Z,100270.00
2023-02-02T04:47:29.217Z,100280.16
2023-02-02T04:49:59.819Z,100282.50
2023-02-02T04:52:27.666Z,100279.41
2023-02-02T04:54:55.180Z,100276.63
2023-02-02T04:57:23.548Z,100285.84
2023-02-02T04:59:51.441Z,100288.88
2023-02-02T05:02:20.185Z,100286.81
2023-02-02T05:04:50.311Z,100295.53
2023-02-02T05:07:21.465Z,100294.91
2023-02-02T05:10:03.432Z,100294.19
2023-02-02T05:12:31.467Z,100288.13
2023-02-02T05:15:01.221Z,100292.03
2023-02-02T05:17:28.156Z,100304.84
2023-02-02T05:19:54.995Z,100298.75
2023-02-02T05:22:21.864Z,100291.75
2023-02-02T05:24:48.699Z,100302.88
2023-02-02T05:27:15.543Z,100300.94
2023-02-02T05:29:42.344Z,100309.56
2023-02-02T05:32:09.265Z,100322.66
2023-02-02T05:34:36.108Z,100323.91
2023-02-02T05:37:03.014Z,100323.34
2023-02-02T05:39:29.879Z,100319.03
2023-02-02T05:41:56.689Z,100323.47
2023-02-02T05:44:23.555Z,100321.13
2023-02-02T05:46:50.488Z,100313.47
2023-02-02T05:49:17.365Z,100325.84
2023-02-02T05:51:48.601Z,100336.28
2023-02-02T05:54:20.697Z,100344.75
2023-02-02T05:56:49.419Z,100346.25
2023-02-02T05:59:17.606Z,100335.06
2023-02-02T06:01:47.949Z,100342.16
2023-02-02T06:04:15.403Z,100348.44
2023-02-02T06:06:42.387Z,100349.81
2023-02-02T06:09:10.741Z,100348.44
2023-02-02T06:11:39.603Z,100341.75
2023-02-02T06:14:07.873Z,100347.09
2023-02-02T06:16:34.877Z,100359.50
2023-02-02T06:19:01.781Z,100364.97
2023-02-02T06:21:31.326Z,100374.97
2023-02-02T06:23:59.561Z,100368.84
2023-02-02T06:26:27.072Z,100377.88
2023-02-02T06:28:54.898Z,100373.53
2023-02-02T06:31:22.635Z,100372.41
2023-02-02T06:33:55.254Z,100373.53
2023-02-02T06:36:23.030Z,100382.88
2023-02-02T06:38:54.459Z,100388.31
2023-02-02T06:41:21.896Z,100388.47
2023-02-02T06:43:49.446Z,100404.19
2023-02-02T06:46:16.685Z,100408.47
2023-02-02T06:48:44.036Z,100401.09
2023-02-02T06:51:11.060Z,100410.78
2023-02-02T06:53:37.827Z,100406.91
2023-02-02T06:56:07.464Z,100417.53
2023-02-02T06:58:34.928Z,100434.22
2023-02-02T07:01:11.997Z,100458.44
2023-02-02T07:03:41.385Z,100476.03
2023-02-02T07:06:12.847Z,100485.78
2023-02-02T07:08:39.935Z,100486.47
2023-02-02T07:11:14.001Z,100490.22
2023-02-02T07:13:47.111Z,100491.91
2023-02-02T07:16:15.366Z,100504.97
2023-02-02T07:18:47.653Z,100503.56
2023-02-02T07:21:22.414Z,100518.78
2023-02-02T07:23:50.330Z,100534.94
2023-02-02T07:26:19.436Z,100519.22
2023-02-02T07:28:47.196Z,100524.63
2023-02-02T07:31:23.223Z,100509.84
2023-02-02T07:33:50.973Z,100521.53
2023-02-02T07:36:20.100Z,100524.19
2023-02-02T07:38:48.758Z,100536.28
2023-02-02T07:41:16.250Z,100539.56
2023-02-02T07:43:43.602Z,100533.25
2023-02-02T07:46:13.160Z,100560.97
2023-02-02T07:48:40.968Z,100571.94
2023-02-02T07:51:11.417Z,100576.97
2023-02-02T07:53:38.394Z,100573.16
2023-02-02T07:56:14.451Z,100572.66
2023-02-02T07:58:43.157Z,100566.13
2023-02-02T08:01:12.301Z,100562.06
2023-02-02T08:03:39.855Z,100559.38
2023-02-02T08:06:37.329Z,100567.72
2023-02-02T08:09:07.821Z,100568.31
2023-02-02T08:11:36.669Z,100571.91
2023-02-02T08:14:04.617Z,100576.47
2023-02-02T08:16:33.212Z,100598.91
2023-02-02T08:19:00.370Z,100594.69
2023-02-02T08:21:27.377Z,100611.50
2023-02-02T08:23:54.372Z,100599.38
2023-02-02T08:26:27.611Z,100622.81
2023-02-02T08:29:00.966Z,100617.41
2023-02-02T08:31:36.669Z,100628.28
2023-02-02T08:34:04.811Z,100651.66
2023-02-02T08:36:32.202Z,100652.91
2023-02-02T08:39:04.242Z,100621.69
2023-02-02T08:41:31.638Z,100638.16
2023-02-02T08:43:58.757Z,100631.59
2023-02-02T08:46:26.048Z,100637.97
2023-02-02T08:48:52.816Z,100622.47
2023-02-02T08:51:20.528Z,100618.41
2023-02-02T08:53:47.919Z,100609.94
2023-02-02T08:56:16.184Z,100631.16
2023-02-02T08:58:52.837Z,100640.66
2023-02-02T09:01:22.656Z,100662.38
2023-02-02T09:03:53.049Z,100661.75
2023-02-02T09:06:22.424Z,100639.53
2023-02-02T09:08:49.257Z,100640.66
2023-02-02T09:11:19.239Z,100634.53
2023-02-02T09:13:51.347Z,100651.47
2023-02-02T09:16:22.723Z,100652.91
2023-02-02T09:18:49.596Z,100645.84
2023-02-02T09:21:18.517Z,100642.38
2023-02-02T09:23:47.095Z,100637.06
2023-02-02T09:26:23.494Z,100636.25
2023-02-02T09:28:54.320Z,100639.28
2023-02-02T09:31:24.358Z,100635.66
2023-02-02T09:33:51.810Z,100624.19
2023-02-02T09:36:25.036Z,100623.50
2023-02-02T09:38:52.020Z,100632.53
2023-02-02T09:41:37.119Z,100640.03
2023-02-02T09:44:35.133Z,100642.22
2023-02-02T09:47:43.512Z,100636.56
2023-02-02T09:50:34.517Z,100636.59
2023-02-02T09:53:05.630Z,100619.09
2023-02-02T09:55:46.305Z,100617.22
2023-02-02T09:58:24.422Z,100619.72
2023-02-02T10:00:57.060Z,100626.34
2023-02-02T10:03:30.172Z,100631.66
2023-02-02T10:06:26.184Z,100634.53
2023-02-02T10:08:57.593Z,100632.50
2023-02-02T10:11:41.304Z,100638.16
2023-02-02T10:14:20.637Z,100655.28
2023-02-02T10:16:51.032Z,100668.47
2023-02-02T10:19:21.313Z,100674.16
2023-02-02T10:22:13.598Z,100663.03
2023-02-02T10:24:40.643Z,100651.38
2023-02-02T10:27:14.303Z,100646.78
2023-02-02T10:30:20.010Z,100643.44
2023-02-02T10:33:05.254Z,100641.69
2023-02-02T10:35:40.719Z,100647.84
2023-02-02T10:38:37.692Z,100639.56
2023-02-02T10:41:15.847Z,100632.47
2023-02-02T10:44:01.624Z,100645.09
2023-02-02T10:46:45.762Z,100638.25
2023-02-02T10:49:24.418Z,100632.56
2023-02-02T10:52:15.360Z,100618.50
2023-02-02T10:54:58.418Z,100615.84
2023-02-02T10:57:34.937Z,100616.28
2023-02-02T11:00:33.154Z,100613.88
2023-02-02T11:03:04.714Z,100616.13
2023-02-02T11:05:50.279Z,100613.25
2023-02-02T11:08:28.784Z,100612.69
2023-02-02T11:10:58.497Z,100612.34
2023-02-02T11:13:37.276Z,100624.31
2023-02-02T11:16:16.384Z,100619.59
2023-02-02T11:18:47.181Z,100605.03
2023-02-02T11:21:32.280Z,100608.81
2023-02-02T11:24:14.419Z,100615.03
2023-02-02T11:27:02.013Z,100608.59
2023-02-02T11:29:41.271Z,100599.75
2023-02-02T11:32:35.720Z,100608.16
2023-02-02T11:35:08.669Z,100607.91
2023-02-02T11:37:39.015Z,100616.19
2023-02-02T11:40:24.749Z,100608.72
2023-02-02T11:42:53.153Z,100598.47
2023-02-02T11:45:30.517Z,100594.06
2023-02-02T11:48:05.334Z,100596.44
2023-02-02T11:50:32.511Z,100592.94
2023-02-02T11:52:59.817Z,100594.19
2023-02-02T11:55:31.568Z,100591.63
2023-02-02T11:58:17.095Z,100588.03
2023-02-02T12:00:48.939Z,100564.00
2023-02-02T12:03:39.891Z,100572.31
2023-02-02T12:06:24.726Z,100575.06
2023-02-02T12:08:56.459Z,100580.09
2023-02-02T12:11:35.417Z,100577.50
2023-02-02T12:14:13.761Z,100570.03
2023-02-02T12:16:59.987Z,100558.81
2023-02-02T12:19:32.482Z,100552.91
2023-02-02T12:22:05.008Z,100541.84
2023-02-02T12:24:34.351Z,100537.34
2023-02-02T12:27:25.403Z,100533.19
2023-02-02T12:30:18.958Z,100536.72
2023-02-02T12:32:58.343Z,100530.00
2023-02-02T12:35:32.689Z,100544.56
2023-02-02T12:38:09.181Z,100537.84
2023-02-02T12:41:17.585Z,100530.78
2023-02-02T12:43:48.213Z,100511.94
2023-02-02T12:46:44.864Z,100503.63
2023-02-02T12:49:31.915Z,100498.22
2023-02-02T12:52:37.941Z,100501.19
2023-02-02T12:55:18.239Z,100517.16
2023-02-02T12:58:02.463Z,100510.00
2023-02-02T13:00:51.252Z,100521.75
2023-02-02T13:03:34.318Z,100519.91
2023-02-02T13:06:10.731Z,100518.84
2023-02-02T13:08:52.055Z,100514.84
2023-02-02T13:11:42.723Z,100514.31
2023-02-02T13:14:20.681Z,100516.06
2023-02-02T13:16:51.796Z,100513.03
2023-02-02T13:19:46.399Z,100504.97
2023-02-02T13:22:20.811Z,100511.22
2023-02-02T13:24:51.435Z,100499.63
2023-02-02T13:27:21.651Z,100495.97
2023-02-02T13:30:23.104Z,100497.03
2023-02-02T13:32:53.744Z,100498.16
2023-02-02T13:35:28.956Z,100495.09
2023-02-02T13:38:16.792Z,100492.25
2023-02-02T13:40:44.524Z,100493.25
2023-02-02T13:43:39.945Z,100493.06
2023-02-02T13:46:12.698Z,100488.78
2023-02-02T13:49:13.606Z,100493.06
2023-02-02T13:51:53.987Z,100495.63
2023-02-02T13:54:44.783Z,100497.25
2023-02-02T13:57:53.187Z,100502.44
2023-02-02T14:00:29.541Z,100512.69
2023-02-02T14:03:04.206Z,100512.09
2023-02-02T14:05:41.464Z,100512.41
2023-02-02T14:08:19.531Z,100509.78
2023-02-02T14:10:52.294Z,100516.53
2023-02-02T14:14:04.671Z,100520.28
2023-02-02T14:16:52.547Z,100514.09
2023-02-02T14:19:31.191Z,100519.88
2023-02-02T14:22:01.720Z,100525.41
2023-02-02T14:24:29.727Z,100527.22
2023-02-02T14:27:20.555Z,100527.25
2023-02-02T14:29:47.513Z,100521.69
2023-02-02T14:32:29.624Z,100519.69
2023-02-02T14:35:08.688Z,100517.50
2023-02-02T14:37:54.942Z,100526.25
2023-02-02T14:40:34.001Z,100532.69
2023-02-02T14:43:34.301Z,100534.03
2023-02-02T14:46:13.098Z,100535.38
2023-02-02T14:49:03.105Z,100534.56
2023-02-02T14:51:33.448Z,100539.94
2023-02-02T14:54:06.586Z,100533.09
2023-02-02T14:56:40.670Z,100538.72
2023-02-02T14:59:20.246Z,100537.66
2023-02-02T15:01:59.951Z,100546.41
2023-02-02T15:04:28.383Z,100531.56
2023-02-02T15:06:56.098Z,100545.06
2023-02-02T15:09:31.349Z,100542.44
2023-02-02T15:12:10.872Z,100541.88
2023-02-02T15:14:53.140Z,100538.84
2023-02-02T15:17:22.768Z,100535.19
2023-02-02T15:20:01.645Z,100536.63
2023-02-02T15:22:56.659Z,100535.06
2023-02-02T15:25:24.031Z,100554.81
2023-02-02T15:28:19.204Z,100549.19
2023-02-02T15:30:51.697Z,100557.78
2023-02-02T15:33:28.704Z,100558.28
2023-02-02T15:35:59.318Z,100563.75
2023-02-02T15:38:34.850Z,100566.59
2023-02-02T15:41:21.855Z,100558.84
2023-02-02T15:43:50.498Z,100568.28
2023-02-02T15:46:24.699Z,100568.63
2023-02-02T15:49:33.776Z,100565.41
2023-02-02T15:52:25.782Z,100579.09
2023-02-02T15:54:53.756Z,100579.19
2023-02-02T15:57:28.504Z,100579.84
2023-02-02T15:59:55.994Z,100592.13
2023-02-02T16:02:36.894Z,100582.50
2023-02-02T16:05:40.951Z,100583.31
2023-02-02T16:08:16.604Z,100587.47
2023-02-02T16:10:46.283Z,100595.16
2023-02-02T16:13:25.319Z,100596.63
2023-02-02T16:16:29.585Z,100601.03
2023-02-02T16:19:14.229Z,100598.53
2023-02-02T16:21:54.699Z,100607.75
2023-02-02T16:24:28.518Z,100612.81
2023-02-02T16:26:59.048Z,100614.84
2023-02-02T16:29:28.188Z,100617.88
2023-02-02T16:31:56.265Z,100625.09
2023-02-02T16:34:41.229Z,100622.13
2023-02-02T16:37:15.128Z,100630.97
2023-02-02T16:39:42.226Z,100626.75
2023-02-02T16:42:11.069Z,100643.41
2023-02-02T16:44:40.193Z,100644.00
2023-02-02T16:47:28.271Z,100634.72
2023-02-02T16:50:10.086Z,100656.03
2023-02-02T16:52:53.168Z,100657.41
2023-02-02T16:55:21.538Z,100665.09
2023-02-02T16:57:50.755Z,100667.16
2023-02-02T17:00:23.623Z,100657.66
2023-02-02T17:02:55.963Z,100671.41
2023-02-02T17:05:27.513Z,100677.75
2023-02-02T17:07:58.554Z,100692.97
2023-02-02T17:10:37.342Z,100691.97
2023-02-02T17:13:30.225Z,100701.00
2023-02-02T17:15:58.158Z,100698.69
2023-02-02T17:18:25.610Z,100691.66
2023-02-02T17:21:03.809Z,100706.38
2023-02-02T17:23:32.714Z,100711.59
2023-02-02T17:25:59.760Z,100709.91
2023-02-02T17:28:27.375Z,100706.28
2023-02-02T17:31:07.477Z,100715.47
2023-02-02T17:33:35.016Z,100724.78
2023-02-02T17:36:02.635Z,100730.63
2023-02-02T17:38:29.534Z,100729.09
2023-02-02T17:41:01.237Z,100732.78
2023-02-02T17:43:32.435Z,100735.78
2023-02-02T17:45:59.924Z,100739.63
2023-02-02T17:48:26.862Z,100741.81
2023-02-02T17:50:53.924Z,100749.81
2023-02-02T17:53:22.549Z,100749.13
2023-02-02T17:55:50.495Z,100752.81
2023-02-02T17:58:18.188Z,100754.66
2023-02-02T18:00:53.989Z,100767.16
2023-02-02T18:03:26.649Z,100772.66
2023-02-02T18:05:53.770Z,100777.50
2023-02-02T18:08:20.611Z,100775.84
2023-02-02T18:10:47.497Z,100777.00
2023-02-02T18:13:16.331Z,100787.81
2023-02-02T18:15:44.113Z,100794.19
2023-02-02T18:18:14.753Z,100798.50
2023-02-02T18:20:43.129Z,100806.16
2023-02-02T18:23:10.718Z,100806.84
2023-02-02T18:25:38.975Z,100813.34
2023-02-02T18:28:10.571Z,100815.88
2023-02-02T18:30:41.396Z,100822.56
2023-02-02T18:33:12.003Z,100826.38
2023-02-02T18:35:46.460Z,100824.41
2023-02-02T18:38:14.779Z,100825.72
2023-02-02T18:40:42.310Z,100831.22
2023-02-02T18:43:09.393Z,100838.56
2023-02-02T18:45:36.748Z,100834.53
2023-02-02T18:48:04.164Z,100839.88
2023-02-02T18:50:31.012Z,100842.22
2023-02-02T18:52:57.948Z,100859.09
2023-02-02T18:55:25.240Z,100861.25
2023-02-02T18:57:52.855Z,100861.63
2023-02-02T19:00:20.333Z,100872.31
2023-02-02T19:02:47.329Z,100873.50
2023-02-02T19:05:37.189Z,100884.34
2023-02-02T19:08:05.969Z,100903.69
2023-02-02T19:10:32.875Z,100900.38
2023-02-02T19:13:05.513Z,100912.22
2023-02-02T19:15:35.498Z,100911.22
2023-02-02T19:18:03.313Z,100938.06
2023-02-02T19:20:30.969Z,100928.00
2023-02-02T19:23:18.398Z,100937.81
2023-02-02T19:25:51.229Z,100937.13
2023-02-02T19:28:18.395Z,100952.53
2023-02-02T19:30:45.628Z,100955.22
2023-02-02T19:33:14.426Z,100966.38
2023-02-02T19:35:45.128Z,100969.88
2023-02-02T19:38:16.813Z,100970.31
2023-02-02T19:40:44.770Z,100978.44
2023-02-02T19:43:14.057Z,100981.28
2023-02-02T19:45:41.295Z,100982.56
2023-02-02T19:48:25.057Z,100985.59
2023-02-02T19:50:52.600Z,101002.44
2023-02-02T19:53:25.213Z,101005.75
2023-02-02T19:55:52.796Z,101020.72
2023-02-02T19:58:19.633Z,101024.50
2023-02-02T20:00:49.269Z,101018.06
2023-02-02T20:03:26.408Z,101027.53
2023-02-02T20:05:56.091Z,101018.66
2023-02-02T20:08:26.027Z,101032.84
2023-02-02T20:10:55.113Z,101044.47
2023-02-02T20:13:23.720Z,101043.28
2023-02-02T20:15:54.670Z,101057.50
2023-02-02T20:18:46.083Z,101054.78
2023-02-02T20:21:22.788Z,101069.75
2023-02-02T20:23:49.739Z,101065.97
2023-02-02T20:26:36.685Z,101055.41
2023-02-02T20:29:20.676Z,101051.59
2023-02-02T20:31:48.282Z,101058.44
2023-02-02T20:34:31.127Z,101077.69
2023-02-02T20:36:59.220Z,101082.94
2023-02-02T20:39:28.833Z,101084.03
2023-02-02T20:41:57.393Z,101071.31
2023-02-02T20:44:26.267Z,101073.34
2023-02-02T20:46:55.439Z,101073.88
2023-02-02T20:49:25.714Z,101059.88
2023-02-02T20:51:56.746Z,101050.06
2023-02-02T20:54:24.765Z,101051.88
2023-02-02T20:56:52.418Z,101058.25
2023-02-02T20:59:20.322Z,101061.16
2023-02-02T21:01:49.933Z,101060.16
2023-02-02T21:04:18.468Z,101046.97
2023-02-02T21:06:46.504Z,101060.91
2023-02-02T21:09:13.808Z,101059.84
2023-02-02T21:11:40.586Z,101051.25
2023-02-02T21:14:07.452Z,101042.75
2023-02-02T21:16:34.366Z,101035.94
2023-02-02T21:19:01.301Z,101042.75
2023-02-02T21:21:28.432Z,101030.09
2023-02-02T21:23:56.433Z,101038.94
2023-02-02T21:26:27.296Z,101019.66
2023-02-02T21:28:54.279Z,101026.66
2023-02-02T21:31:21.384Z,101020.09
2023-02-02T21:33:50.702Z,101038.94
2023-02-02T21:36:31.750Z,101035.28
2023-02-02T21:39:29.196Z,101030.41
2023-02-02T21:42:20.689Z,101049.13
2023-02-02T21:44:59.004Z,101042.03
2023-02-02T21:47:34.337Z,101039.53
2023-02-02T21:50:26.052Z,101040.94
2023-02-02T21:53:12.493Z,101049.97
2023-02-02T21:55:40.886Z,101053.03
2023-02-02T21:58:34.503Z,101061.38
2023-02-02T22:01:27.310Z,101070.56
2023-02-02T22:03:54.326Z,101076.59
2023-02-02T22:06:21.015Z,101077.88
2023-02-02T22:08:49.378Z,101084.78
2023-02-02T22:11:31.314Z,101081.56
2023-02-02T22:14:11.879Z,101076.81
2023-02-02T22:16:44.824Z,101086.09
2023-02-02T22:19:31.881Z,101089.22
2023-02-02T22:22:18.426Z,101076.84
2023-02-02T22:24:48.562Z,101081.03
2023-02-02T22:27:21.798Z,101099.47
2023-02-02T22:29:49.576Z,101102.44
2023-02-02T22:32:16.485Z,101099.47
2023-02-02T22:34:43.360Z,101105.34
2023-02-02T22:37:10.181Z,101102.00
2023-02-02T22:39:42.901Z,101101.94
2023-02-02T22:42:10.973Z,101106.44
2023-02-02T22:44:37.935Z,101093.19
2023-02-02T22:47:05.096Z,101088.25
2023-02-02T22:49:31.960Z,101099.41
2023-02-02T22:51:58.899Z,101113.94
2023-02-02T22:54:25.775Z,101115.25
2023-02-02T22:56:52.661Z,101101.78
2023-02-02T22:59:19.584Z,101116.63
2023-02-02T23:01:46.411Z,101103.09
2023-02-02T23:04:13.165Z,101098.25
2023-02-02T23:06:41.667Z,101113.16
2023-02-02T23:09:08.525Z,101117.59
2023-02-02T23:11:35.494Z,101128.09
2023-02-02T23:14:02.319Z,101120.94
2023-02-02T23:16:29.270Z,101121.25
2023-02-02T23:18:56.065Z,101120.72
2023-02-02T23:21:22.892Z,101116.00
2023-02-02T23:23:49.784Z,101116.31
2023-02-02T23:26:16.742Z,101131.59
2023-02-02T23:28:43.524Z,101128.50
2023-02-02T23:31:10.503Z,101126.13
2023-02-02T23:33:37.328Z,101150.50
2023-02-02T23:36:04.624Z,101149.19
2023-02-02T23:38:31.450Z,101143.78
2023-02-02T23:40:58.530Z,101158.94
2023-02-02T23:43:25.362Z,101163.56
2023-02-02T23:45:52.601Z,101152.44
2023-02-02T23:48:20.067Z,101160.63
2023-02-02T23:50:47.367Z,101165.94
2023-02-02T23:53:15.309Z,101147.31
2023-02-02T23:55:43.547Z,101161.31
2023-02-02T23:58:11.061Z,101154.75
